createdAt,value
2023-06-02T00:01:37.502Z,95854.70
2023-06-02T00:10:00.571Z,95864.98
2023-06-02T00:18:24.343Z,95898.48
2023-06-02T00:26:47.281Z,95972.64
2023-06-02T00:35:10.496Z,96024.23
2023-06-02T00:43:33.479Z,96015.38
2023-06-02T00:51:57.380Z,96027.88
2023-06-02T01:00:21.634Z,96053.09
2023-06-02T01:08:45.743Z,96074.70
2023-06-02T01:17:08.678Z,96085.94
2023-06-02T01:25:31.666Z,96071.71
2023-06-02T01:34:09.403Z,96068.33
2023-06-02T01:42:34.322Z,96063.41
2023-06-02T01:50:59.764Z,96057.50
2023-06-02T01:59:23.537Z,96071.01
2023-06-02T02:07:49.062Z,96080.53
2023-06-02T02:16:12.026Z,96079.84
2023-06-02T02:24:34.916Z,96054.46
2023-06-02T02:32:58.651Z,96039.38
2023-06-02T02:41:22.469Z,96052.60
2023-06-02T02:49:46.051Z,96083.60
2023-06-02T02:58:09.680Z,96118.23
2023-06-02T03:06:34.742Z,96149.40
2023-06-02T03:14:58.759Z,96160.05
2023-06-02T03:23:24.478Z,96154.83
2023-06-02T03:31:47.749Z,96173.08
2023-06-02T03:40:13.516Z,96294.86
2023-06-02T03:48:37.110Z,96425.50
2023-06-02T03:57:00.198Z,96553.77
2023-06-02T04:05:24.181Z,96774.76
2023-06-02T04:13:47.211Z,97020.92
2023-06-02T04:22:10.231Z,97257.88
2023-06-02T04:30:33.571Z,97436.34
2023-06-02T04:38:57.013Z,97546.55
2023-06-02T04:47:20.824Z,97618.88
2023-06-02T04:55:48.347Z,97613.89
2023-06-02T05:04:13.289Z,97508.35
2023-06-02T05:12:38.645Z,97375.02
2023-06-02T05:21:01.766Z,97251.42
2023-06-02T05:29:25.789Z,97169.39
2023-06-02T05:37:49.625Z,97097.03
2023-06-02T05:46:14.108Z,97020.14
2023-06-02T05:54:37.178Z,96985.44
2023-06-02T06:03:00.750Z,97019.65
2023-06-02T06:11:27.130Z,97277.73
2023-06-02T06:19:51.135Z,97487.83
2023-06-02T06:28:14.817Z,97494.14
2023-06-02T06:36:41.491Z,97390.21
2023-06-02T06:45:04.984Z,97318.48
2023-06-02T06:53:29.362Z,97288.06
2023-06-02T07:01:52.428Z,97259.85
2023-06-02T07:10:15.613Z,97347.91
2023-06-02T07:18:38.539Z,97583.40
2023-06-02T07:27:01.439Z,97492.00
2023-06-02T07:35:26.872Z,97345.17
2023-06-02T07:43:49.807Z,97334.80
2023-06-02T07:52:16.793Z,97334.92
2023-06-02T08:00:40.812Z,97287.54
2023-06-02T08:09:04.829Z,97234.25
2023-06-02T08:17:30.716Z,97228.98
2023-06-02T08:25:57.409Z,97224.71
2023-06-02T08:34:21.995Z,97184.90
2023-06-02T08:42:45.186Z,97187.51
2023-06-02T08:51:12.085Z,97181.06
2023-06-02T08:59:35.240Z,97089.84
2023-06-02T09:08:11.156Z,96998.18
2023-06-02T09:16:42.037Z,96940.88
2023-06-02T09:25:22.610Z,96912.45
2023-06-02T09:34:01.079Z,96883.71
2023-06-02T09:42:24.018Z,96931.34
2023-06-02T09:50:47.377Z,97125.56
2023-06-02T09:59:10.769Z,97463.94
2023-06-02T10:08:11.457Z,97745.81
2023-06-02T10:17:06.710Z,97878.94
2023-06-02T10:25:41.705Z,97989.88
2023-06-02T10:34:05.578Z,98040.52
2023-06-02T10:42:31.631Z,98028.21
2023-06-02T10:50:57.714Z,98053.94
2023-06-02T10:59:37.626Z,98006.05
2023-06-02T11:08:12.932Z,97726.81
2023-06-02T11:16:36.808Z,97477.13
2023-06-02T11:25:03.449Z,97363.71
2023-06-02T11:33:36.960Z,97284.48
2023-06-02T11:42:00.452Z,97180.54
2023-06-02T11:50:23.606Z,97069.95
2023-06-02T11:58:48.410Z,96988.02
2023-06-02T12:07:11.513Z,96939.52
2023-06-02T12:15:35.080Z,96908.60
2023-06-02T12:23:59.602Z,96881.70
2023-06-02T12:32:30.036Z,96892.37
2023-06-02T12:40:53.117Z,96889.41
2023-06-02T12:49:16.270Z,96864.23
2023-06-02T12:57:39.476Z,96858.74
2023-06-02T13:06:07.202Z,96920.98
2023-06-02T13:14:31.154Z,96963.81
2023-06-02T13:22:54.230Z,96980.92
2023-06-02T13:31:17.194Z,97086.48
2023-06-02T13:39:40.177Z,97111.23
2023-06-02T13:48:05.197Z,96979.66
2023-06-02T13:56:28.951Z,96803.79
2023-06-02T14:04:52.116Z,96662.29
2023-06-02T14:13:15.256Z,96552.13
2023-06-02T14:21:38.911Z,96444.96
2023-06-02T14:30:04.340Z,96369.85
2023-06-02T14:38:28.227Z,96330.84
2023-06-02T14:46:51.302Z,96356.25
2023-06-02T14:55:15.349Z,96351.53
2023-06-02T15:03:43.136Z,96342.80
2023-06-02T15:12:06.935Z,96348.04
2023-06-02T15:20:30.204Z,96442.73
2023-06-02T15:28:53.297Z,96527.96
2023-06-02T15:37:16.366Z,96647.23
2023-06-02T15:45:39.357Z,96852.27
2023-06-02T15:54:03.132Z,96962.48
2023-06-02T16:02:26.677Z,96976.65
2023-06-02T16:10:49.948Z,96981.02
2023-06-02T16:19:15.040Z,96956.30
2023-06-02T16:27:38.226Z,96936.20
2023-06-02T16:36:01.331Z,96941.11
2023-06-02T16:44:24.508Z,96940.62
2023-06-02T16:52:47.615Z,96937.92
2023-06-02T17:01:10.997Z,96934.16
2023-06-02T17:09:34.097Z,96901.44
2023-06-02T17:17:58.778Z,96865.59
2023-06-02T17:26:21.874Z,96836.39
2023-06-02T17:34:46.766Z,96789.13
2023-06-02T17:43:11.403Z,96713.30
2023-06-02T17:51:34.453Z,96619.49
2023-06-02T17:59:57.476Z,96529.77
2023-06-02T18:08:21.344Z,96445.08
2023-06-02T18:16:44.702Z,96361.23
2023-06-02T18:25:09.131Z,96247.70
2023-06-02T18:33:32.381Z,96107.30
2023-06-02T18:41:55.644Z,95977.32
2023-06-02T18:50:19.176Z,95827.65
2023-06-02T18:58:42.489Z,95675.40
2023-06-02T19:07:07.755Z,95562.11
2023-06-02T19:15:31.372Z,95435.98
2023-06-02T19:23:54.754Z,95306.77
2023-06-02T19:32:17.712Z,95189.83
2023-06-02T19:40:41.423Z,95095.98
2023-06-02T19:49:04.874Z,94981.28
2023-06-02T19:57:27.920Z,94879.27
2023-06-02T20:05:51.023Z,94770.37
2023-06-02T20:14:14.234Z,94705.39
2023-06-02T20:22:37.468Z,94664.94
2023-06-02T20:31:02.690Z,94625.10
2023-06-02T20:39:26.193Z,94574.85
2023-06-02T20:47:49.583Z,94503.79
2023-06-02T20:56:12.836Z,94421.32
2023-06-02T21:04:35.896Z,94364.37
2023-06-02T21:12:58.898Z,94331.11
2023-06-02T21:21:21.782Z,94305.55
2023-06-02T21:29:44.797Z,94316.23
2023-06-02T21:38:09.243Z,94338.21
2023-06-02T21:46:35.013Z,94335.20
2023-06-02T21:54:59.264Z,94306.52
2023-06-02T22:03:22.855Z,94265.05
2023-06-02T22:11:46.612Z,94198.17
2023-06-02T22:20:10.759Z,94140.83
2023-06-02T22:28:34.250Z,94063.43
2023-06-02T22:36:57.183Z,93927.56
2023-06-02T22:45:22.688Z,93801.52
2023-06-02T22:53:45.730Z,93687.04
2023-06-02T23:02:08.727Z,93616.04
2023-06-02T23:10:31.673Z,93560.61
2023-06-02T23:18:54.708Z,93494.08
2023-06-02T23:27:17.888Z,93429.59
2023-06-02T23:35:43.331Z,93377.94
2023-06-02T23:44:08.194Z,93328.70
2023-06-02T23:52:32.285Z,93254.99
